createdAt,value
2018-10-16T00:02:13.517Z,19.37
2018-10-16T00:04:42.315Z,18.90
2018-10-16T00:07:10.905Z,19.03
2018-10-16T00:09:40.122Z,19.53
2018-10-16T00:12:09.372Z,19.17
2018-10-16T00:14:39.063Z,18.10
2018-10-16T00:17:07.714Z,16.90
2018-10-16T00:19:36.516Z,19.63
2018-10-16T00:22:05.729Z,16.63
2018-10-16T00:24:36.227Z,16.77
2018-10-16T00:27:04.750Z,17.67
2018-10-16T00:29:33.716Z,18.60
2018-10-16T00:32:02.318Z,18.07
2018-10-16T00:34:30.854Z,17.97
2018-10-16T00:36:59.415Z,18.93
2018-10-16T00:39:27.973Z,17.80
2018-10-16T00:41:57.891Z,19.80
2018-10-16T00:44:26.790Z,19.20
2018-10-16T00:46:56.805Z,19.23
2018-10-16T00:49:25.375Z,20.60
2018-10-16T00:51:54.839Z,21.53
2018-10-16T00:54:23.351Z,20.47
2018-10-16T00:56:52.518Z,20.87
2018-10-16T00:59:21.104Z,18.03
2018-10-16T01:01:49.930Z,16.87
2018-10-16T01:04:18.708Z,17.53
2018-10-16T01:06:47.306Z,13.53
2018-10-16T01:09:16.370Z,13.20
2018-10-16T01:11:44.981Z,12.10
2018-10-16T01:14:14.795Z,10.90
2018-10-16T01:16:43.405Z,8.20
2018-10-16T01:19:13.591Z,7.73
2018-10-16T01:21:42.105Z,5.87
2018-10-16T01:24:11.640Z,5.40
2018-10-16T01:26:40.252Z,5.50
2018-10-16T01:29:12.247Z,6.00
2018-10-16T01:31:40.807Z,5.50
2018-10-16T01:34:10.681Z,4.40
2018-10-16T01:36:39.308Z,4.13
2018-10-16T01:39:09.015Z,3.93
2018-10-16T01:41:37.656Z,3.97
2018-10-16T01:44:07.515Z,3.50
2018-10-16T01:46:36.026Z,3.27
2018-10-16T01:49:05.482Z,3.57
2018-10-16T01:51:33.999Z,3.67
2018-10-16T01:54:02.899Z,3.87
2018-10-16T01:56:31.425Z,4.03
2018-10-16T01:59:00.135Z,4.37
2018-10-16T02:01:28.888Z,3.27
2018-10-16T02:03:57.481Z,4.17
2018-10-16T02:06:27.246Z,3.50
2018-10-16T02:08:55.735Z,3.13
2018-10-16T02:11:25.190Z,3.30
2018-10-16T02:13:54.029Z,3.20
2018-10-16T02:16:23.594Z,3.47
2018-10-16T02:18:52.183Z,3.00
2018-10-16T02:21:21.041Z,2.87
2018-10-16T02:23:50.325Z,2.80
2018-10-16T02:26:18.934Z,3.10
2018-10-16T02:28:47.454Z,3.53
2018-10-16T02:31:16.000Z,3.07
2018-10-16T02:33:45.895Z,2.97
2018-10-16T02:36:14.463Z,3.47
2018-10-16T02:38:44.387Z,2.73
2018-10-16T02:41:12.872Z,3.03
2018-10-16T02:43:42.366Z,2.50
2018-10-16T02:46:10.875Z,2.77
2018-10-16T02:48:40.119Z,2.67
2018-10-16T02:51:08.818Z,2.63
2018-10-16T02:53:38.602Z,3.00
2018-10-16T02:56:07.683Z,2.60
2018-10-16T02:58:37.518Z,3.30
2018-10-16T03:01:06.514Z,3.30
2018-10-16T03:03:37.945Z,3.33
2018-10-16T03:06:06.923Z,2.83
2018-10-16T03:08:36.627Z,2.70
2018-10-16T03:11:05.542Z,3.40
2018-10-16T03:13:36.156Z,4.17
2018-10-16T03:16:04.819Z,4.20
2018-10-16T03:18:33.771Z,4.37
2018-10-16T03:21:02.373Z,4.30
2018-10-16T03:23:31.064Z,4.40
2018-10-16T03:25:59.675Z,5.23
2018-10-16T03:28:28.344Z,5.03
2018-10-16T03:30:57.255Z,5.73
2018-10-16T03:33:25.800Z,6.17
2018-10-16T03:35:54.730Z,5.27
2018-10-16T03:38:23.478Z,6.10
2018-10-16T03:40:53.415Z,7.10
2018-10-16T03:43:21.974Z,6.87
2018-10-16T03:45:51.047Z,6.73
2018-10-16T03:48:20.163Z,8.77
2018-10-16T03:50:48.819Z,6.97
2018-10-16T03:53:17.387Z,8.57
2018-10-16T03:55:46.538Z,8.10
2018-10-16T03:58:15.152Z,8.33
2018-10-16T04:00:44.613Z,8.37
2018-10-16T04:03:13.123Z,9.07
2018-10-16T04:05:41.632Z,8.97
2018-10-16T04:08:12.197Z,9.80
2018-10-16T04:10:40.710Z,8.77
2018-10-16T04:13:10.676Z,8.20
2018-10-16T04:15:40.249Z,9.60
2018-10-16T04:18:09.453Z,9.37
2018-10-16T04:20:38.927Z,9.50
2018-10-16T04:23:07.471Z,9.47
2018-10-16T04:25:36.514Z,10.13
2018-10-16T04:28:05.392Z,9.90
2018-10-16T04:30:34.698Z,9.20
2018-10-16T04:33:03.807Z,9.30
2018-10-16T04:35:32.748Z,9.90
2018-10-16T04:38:01.339Z,10.27
2018-10-16T04:40:30.044Z,10.60
2018-10-16T04:42:58.547Z,9.70
2018-10-16T04:45:27.220Z,9.90
2018-10-16T04:47:56.050Z,9.57
2018-10-16T04:50:24.611Z,9.43
2018-10-16T04:52:53.518Z,9.73
2018-10-16T04:55:22.033Z,10.00
2018-10-16T04:57:50.670Z,10.17
2018-10-16T05:00:19.158Z,10.87
2018-10-16T05:02:47.966Z,9.97
2018-10-16T05:05:22.893Z,11.77
2018-10-16T05:07:54.319Z,10.97
2018-10-16T05:10:23.311Z,11.43
2018-10-16T05:12:52.915Z,12.33
2018-10-16T05:15:29.435Z,11.13
2018-10-16T05:17:58.069Z,11.40
2018-10-16T05:20:27.371Z,12.73
2018-10-16T05:22:57.595Z,13.80
2018-10-16T05:25:27.436Z,11.47
2018-10-16T05:27:56.384Z,13.83
2018-10-16T05:30:25.564Z,12.47
2018-10-16T05:32:54.280Z,11.67
2018-10-16T05:35:23.242Z,13.10
2018-10-16T05:37:51.847Z,13.13
2018-10-16T05:40:23.246Z,12.30
2018-10-16T05:42:51.891Z,12.30
2018-10-16T05:45:21.155Z,12.90
2018-10-16T05:47:49.722Z,13.03
2018-10-16T05:50:19.333Z,13.23
2018-10-16T05:52:48.018Z,14.03
2018-10-16T05:55:18.853Z,13.53
2018-10-16T05:57:47.411Z,13.30
2018-10-16T06:00:27.327Z,14.10
2018-10-16T06:02:56.230Z,14.23
2018-10-16T06:05:24.911Z,14.77
2018-10-16T06:07:54.494Z,13.63
2018-10-16T06:10:23.046Z,13.83
2018-10-16T06:12:53.006Z,13.03
2018-10-16T06:15:21.519Z,14.67
2018-10-16T06:17:51.860Z,14.33
2018-10-16T06:20:20.356Z,13.67
2018-10-16T06:22:50.208Z,14.13
2018-10-16T06:25:18.853Z,14.27
2018-10-16T06:27:48.253Z,14.13
2018-10-16T06:30:16.890Z,14.97
2018-10-16T06:32:45.698Z,14.57
2018-10-16T06:35:14.200Z,21.42
2018-10-16T06:37:42.811Z,15.03
2018-10-16T06:40:11.823Z,15.20
2018-10-16T06:42:40.508Z,14.80
2018-10-16T06:45:11.539Z,13.70
2018-10-16T06:47:40.369Z,12.97
2018-10-16T06:50:10.350Z,13.57
2018-10-16T06:52:39.886Z,13.27
2018-10-16T06:55:09.433Z,12.90
2018-10-16T06:57:38.084Z,12.27
2018-10-16T07:00:07.971Z,13.00
2018-10-16T07:02:36.642Z,13.30
2018-10-16T07:05:07.478Z,13.80
2018-10-16T07:07:37.428Z,12.80
2018-10-16T07:10:08.646Z,13.97
2018-10-16T07:12:37.734Z,14.77
2018-10-16T07:15:06.862Z,14.63
2018-10-16T07:17:35.556Z,14.43
2018-10-16T07:20:04.511Z,14.77
2018-10-16T07:22:33.108Z,14.23
2018-10-16T07:25:01.831Z,14.20
2018-10-16T07:27:30.486Z,15.13
2018-10-16T07:29:59.466Z,14.40
2018-10-16T07:32:28.647Z,15.03
2018-10-16T07:34:57.598Z,13.93
2018-10-16T07:37:26.234Z,13.97
2018-10-16T07:39:55.126Z,13.70
2018-10-16T07:42:24.267Z,13.57
2018-10-16T07:44:52.855Z,14.80
2018-10-16T07:47:21.523Z,14.83
2018-10-16T07:49:50.031Z,14.50
2018-10-16T07:52:18.943Z,15.07
2018-10-16T07:54:47.536Z,14.77
2018-10-16T07:57:16.683Z,15.30
2018-10-16T07:59:45.883Z,15.87
2018-10-16T08:02:15.386Z,14.50
2018-10-16T08:04:44.107Z,14.30
2018-10-16T08:07:12.950Z,14.63
2018-10-16T08:09:41.579Z,15.00
2018-10-16T08:12:10.871Z,14.00
2018-10-16T08:14:40.725Z,14.93
2018-10-16T08:17:09.355Z,14.33
2018-10-16T08:19:38.292Z,14.37
2018-10-16T08:22:06.875Z,14.43
2018-10-16T08:24:36.015Z,14.30
2018-10-16T08:27:04.736Z,14.63
2018-10-16T08:29:33.690Z,14.80
2018-10-16T08:32:02.212Z,15.27
2018-10-16T08:34:31.255Z,14.63
2018-10-16T08:36:59.840Z,15.13
2018-10-16T08:39:32.802Z,13.60
2018-10-16T08:42:14.883Z,14.67
2018-10-16T08:45:26.051Z,14.30
2018-10-16T08:48:06.168Z,13.57
2018-10-16T08:50:47.755Z,14.37
2018-10-16T08:53:16.250Z,14.90
2018-10-16T08:55:44.851Z,13.60
2018-10-16T08:58:13.438Z,14.20
2018-10-16T09:00:41.999Z,13.53
2018-10-16T09:03:11.628Z,14.80
2018-10-16T09:05:40.262Z,13.20
2018-10-16T09:08:09.103Z,15.27
2018-10-16T09:10:37.610Z,14.47
2018-10-16T09:13:06.636Z,13.33
2018-10-16T09:15:35.140Z,14.57
2018-10-16T09:18:03.942Z,14.60
2018-10-16T09:20:32.579Z,13.30
2018-10-16T09:23:01.250Z,14.50
2018-10-16T09:25:30.493Z,13.20
2018-10-16T09:27:59.045Z,13.20
2018-10-16T09:30:28.244Z,13.17
2018-10-16T09:32:56.743Z,14.10
2018-10-16T09:35:27.197Z,13.90
2018-10-16T09:37:55.867Z,14.65
2018-10-16T09:40:24.968Z,12.70
2018-10-16T09:42:53.626Z,12.17
2018-10-16T09:45:23.098Z,12.83
2018-10-16T09:47:51.619Z,12.63
2018-10-16T09:50:20.508Z,13.43
2018-10-16T09:52:49.016Z,13.23
2018-10-16T09:55:17.518Z,11.97
2018-10-16T09:57:46.723Z,13.17
2018-10-16T10:00:20.568Z,13.80
2018-10-16T10:02:49.210Z,12.93
2018-10-16T10:05:18.097Z,12.80
2018-10-16T10:07:46.665Z,12.37
2018-10-16T10:10:15.383Z,12.57
2018-10-16T10:12:44.107Z,12.57
2018-10-16T10:15:12.627Z,12.90
2018-10-16T10:17:42.446Z,13.27
2018-10-16T10:20:14.587Z,12.60
2018-10-16T10:22:43.308Z,13.07
2018-10-16T10:25:12.759Z,12.63
2018-10-16T10:27:41.361Z,12.93
2018-10-16T10:30:12.432Z,12.33
2018-10-16T10:32:41.772Z,12.93
2018-10-16T10:35:12.617Z,12.85
2018-10-16T10:37:41.872Z,11.55
2018-10-16T10:40:11.551Z,12.35
2018-10-16T10:42:40.239Z,11.80
2018-10-16T10:45:10.143Z,11.47
2018-10-16T10:47:39.247Z,12.63
2018-10-16T10:50:11.615Z,11.97
2018-10-16T10:52:40.019Z,12.47
2018-10-16T10:55:09.362Z,12.53
2018-10-16T10:57:38.613Z,12.67
2018-10-16T11:00:09.548Z,12.15
2018-10-16T11:02:39.310Z,11.63
2018-10-16T11:05:09.530Z,12.05
2018-10-16T11:07:38.159Z,12.58
2018-10-16T11:10:10.457Z,13.05
2018-10-16T11:12:39.317Z,12.68
2018-10-16T11:15:08.527Z,12.50
2018-10-16T11:17:37.731Z,12.90
2018-10-16T11:20:07.291Z,13.17
2018-10-16T11:22:35.894Z,12.93
2018-10-16T11:25:06.391Z,12.34
2018-10-16T11:27:35.154Z,12.28
2018-10-16T11:30:06.207Z,13.90
2018-10-16T11:32:34.776Z,12.80
2018-10-16T11:35:03.503Z,12.33
2018-10-16T11:37:32.107Z,12.93
2018-10-16T11:40:00.975Z,12.93
2018-10-16T11:42:29.580Z,12.65
2018-10-16T11:44:59.985Z,12.00
2018-10-16T11:47:29.666Z,11.53
2018-10-16T11:49:58.700Z,11.78
2018-10-16T11:52:27.264Z,12.37
2018-10-16T11:54:56.030Z,12.83
2018-10-16T11:57:24.863Z,13.28
2018-10-16T11:59:53.403Z,11.83
2018-10-16T12:02:22.500Z,12.80
2018-10-16T12:04:50.996Z,12.33
2018-10-16T12:07:19.892Z,11.85
2018-10-16T12:09:48.455Z,12.70
2018-10-16T12:12:17.338Z,11.60
2018-10-16T12:14:45.926Z,12.10
2018-10-16T12:18:17.300Z,11.63
2018-10-16T12:20:51.795Z,12.07
2018-10-16T12:23:20.495Z,11.63
2018-10-16T12:25:48.984Z,11.95
2018-10-16T12:28:17.525Z,12.60
2018-10-16T12:30:46.956Z,12.53
2018-10-16T12:33:15.579Z,13.43
2018-10-16T12:35:44.135Z,11.90
2018-10-16T12:38:13.771Z,11.83
2018-10-16T12:40:42.514Z,12.55
2018-10-16T12:43:11.082Z,12.10
2018-10-16T12:45:40.294Z,12.03
2018-10-16T12:48:09.068Z,12.30
2018-10-16T12:50:38.155Z,13.53
2018-10-16T12:53:07.120Z,13.58
2018-10-16T12:55:35.741Z,14.58
2018-10-16T12:58:04.707Z,13.22
2018-10-16T13:00:33.387Z,14.45
2018-10-16T13:03:03.022Z,14.15
2018-10-16T13:05:31.566Z,12.95
2018-10-16T13:08:01.030Z,13.20
2018-10-16T13:10:29.623Z,13.18
2018-10-16T13:12:59.024Z,12.35
2018-10-16T13:15:27.543Z,13.93
2018-10-16T13:17:56.628Z,14.15
2018-10-16T13:20:25.166Z,13.18
2018-10-16T13:22:54.285Z,13.75
2018-10-16T13:25:22.929Z,14.28
2018-10-16T13:27:51.473Z,13.65
2018-10-16T13:30:20.919Z,13.08
2018-10-16T13:32:50.866Z,13.55
2018-10-16T13:35:20.498Z,13.32
2018-10-16T13:37:49.789Z,14.13
2018-10-16T13:40:18.384Z,13.75
2018-10-16T13:42:46.926Z,13.50
2018-10-16T13:45:16.736Z,13.63
2018-10-16T13:47:45.343Z,13.70
2018-10-16T13:50:15.400Z,14.05
2018-10-16T13:52:44.545Z,13.97
2018-10-16T13:55:13.499Z,13.50
2018-10-16T13:57:42.427Z,14.00
2018-10-16T14:00:16.443Z,14.03
2018-10-16T14:02:46.445Z,14.10
2018-10-16T14:05:15.044Z,14.03
2018-10-16T14:07:44.799Z,14.45
2018-10-16T14:10:15.275Z,14.68
2018-10-16T14:12:46.209Z,15.23
2018-10-16T14:15:16.667Z,13.55
2018-10-16T14:17:45.433Z,15.03
2018-10-16T14:20:14.287Z,14.27
2018-10-16T14:22:43.647Z,14.43
2018-10-16T14:25:13.514Z,15.33
2018-10-16T14:27:43.113Z,14.73
2018-10-16T14:30:14.309Z,14.97
2018-10-16T14:32:43.906Z,14.97
2018-10-16T14:35:12.998Z,15.73
2018-10-16T14:37:42.021Z,14.33
2018-10-16T14:40:13.402Z,14.97
2018-10-16T14:42:42.111Z,14.35
2018-10-16T14:45:11.843Z,15.87
2018-10-16T14:47:40.399Z,15.08
2018-10-16T14:50:10.430Z,15.73
2018-10-16T14:52:39.727Z,15.07
2018-10-16T14:55:09.353Z,15.77
2018-10-16T14:57:38.521Z,15.48
2018-10-16T15:00:10.402Z,15.53
2018-10-16T15:02:39.256Z,16.03
2018-10-16T15:05:09.748Z,16.30
2018-10-16T15:07:38.677Z,16.37
2018-10-16T15:10:08.750Z,16.43
2018-10-16T15:12:38.498Z,15.87
2018-10-16T15:15:08.523Z,15.93
2018-10-16T15:17:37.206Z,16.95
2018-10-16T15:20:08.441Z,17.63
2018-10-16T15:22:38.117Z,15.78
2018-10-16T15:25:08.444Z,13.87
2018-10-16T15:27:37.063Z,14.80
2018-10-16T15:30:07.695Z,15.05
2018-10-16T15:32:36.307Z,16.33
2018-10-16T15:35:06.221Z,17.33
2018-10-16T15:37:34.764Z,18.35
2018-10-16T15:40:03.829Z,18.40
2018-10-16T15:42:32.367Z,18.30
2018-10-16T15:45:01.177Z,18.23
2018-10-16T15:47:30.249Z,18.27
2018-10-16T15:49:59.076Z,19.43
2018-10-16T15:52:27.801Z,17.93
2018-10-16T15:54:56.559Z,18.87
2018-10-16T15:57:25.210Z,17.57
2018-10-16T15:59:54.695Z,18.57
2018-10-16T16:02:23.724Z,17.67
2018-10-16T16:04:52.238Z,16.93
2018-10-16T16:07:21.251Z,18.73
2018-10-16T16:09:49.763Z,19.73
2018-10-16T16:12:18.540Z,17.40
2018-10-16T16:14:47.203Z,16.30
2018-10-16T16:17:15.764Z,15.73
2018-10-16T16:19:44.425Z,15.50
2018-10-16T16:22:13.977Z,15.87
2018-10-16T16:24:42.751Z,14.53
2018-10-16T16:27:11.259Z,14.90
2018-10-16T16:29:40.344Z,14.20
2018-10-16T16:32:09.121Z,15.00
2018-10-16T16:34:38.219Z,15.13
2018-10-16T16:37:06.751Z,15.37
2018-10-16T16:39:35.470Z,16.17
2018-10-16T16:42:04.056Z,16.07
2018-10-16T16:44:32.717Z,15.77
2018-10-16T16:47:01.378Z,14.00
2018-10-16T16:49:29.923Z,15.07
2018-10-16T16:51:59.361Z,12.73
2018-10-16T16:54:27.963Z,15.17
2018-10-16T16:56:56.631Z,14.80
2018-10-16T16:59:25.239Z,14.70
2018-10-16T17:01:54.017Z,13.87
2018-10-16T17:04:23.823Z,14.00
2018-10-16T17:06:52.512Z,14.40
2018-10-16T17:09:21.005Z,14.23
2018-10-16T17:11:49.680Z,13.90
2018-10-16T17:14:18.339Z,13.93
2018-10-16T17:16:46.858Z,14.23
2018-10-16T17:19:15.529Z,13.00
2018-10-16T17:21:44.236Z,14.17
2018-10-16T17:24:12.906Z,13.40
2018-10-16T17:26:41.494Z,12.97
2018-10-16T17:29:10.043Z,13.93
2018-10-16T17:31:39.291Z,14.60
2018-10-16T17:34:07.868Z,14.27
2018-10-16T17:36:36.681Z,12.90
2018-10-16T17:39:07.301Z,13.80
2018-10-16T17:41:35.914Z,13.93
2018-10-16T17:44:04.499Z,13.43
2018-10-16T17:46:33.475Z,13.90
2018-10-16T17:49:02.259Z,16.27
2018-10-16T17:51:30.866Z,13.97
2018-10-16T17:53:59.495Z,14.23
2018-10-16T17:56:28.283Z,14.33
2018-10-16T17:58:57.064Z,14.03
2018-10-16T18:01:25.632Z,13.73
2018-10-16T18:03:54.451Z,15.20
2018-10-16T18:06:23.123Z,13.60
2018-10-16T18:08:51.810Z,15.53
2018-10-16T18:11:20.343Z,14.43
2018-10-16T18:13:48.944Z,14.97
2018-10-16T18:16:17.431Z,14.90
2018-10-16T18:18:45.939Z,14.47
2018-10-16T18:21:14.719Z,14.90
2018-10-16T18:23:43.326Z,14.77
2018-10-16T18:26:12.053Z,14.23
2018-10-16T18:28:40.563Z,14.00
2018-10-16T18:31:09.085Z,14.77
2018-10-16T18:33:37.627Z,15.37
2018-10-16T18:36:06.198Z,15.60
2018-10-16T18:38:34.895Z,14.57
2018-10-16T18:41:03.421Z,15.47
2018-10-16T18:43:32.279Z,15.90
2018-10-16T18:46:00.792Z,16.17
2018-10-16T18:48:29.634Z,15.70
2018-10-16T18:50:58.379Z,15.07
2018-10-16T18:53:26.962Z,16.33
2018-10-16T18:55:56.163Z,17.17
2018-10-16T18:58:24.866Z,17.30
2018-10-16T19:00:53.562Z,17.93
2018-10-16T19:03:22.137Z,16.63
2018-10-16T19:05:51.839Z,16.13
2018-10-16T19:08:20.439Z,13.70
2018-10-16T19:10:49.488Z,13.90
2018-10-16T19:13:17.982Z,13.00
2018-10-16T19:15:46.493Z,12.97
2018-10-16T19:18:15.071Z,11.83
2018-10-16T19:20:44.277Z,12.70
2018-10-16T19:23:12.987Z,13.30
2018-10-16T19:25:41.643Z,11.63
2018-10-16T19:28:11.003Z,12.37
2018-10-16T19:30:39.627Z,12.37
2018-10-16T19:33:08.619Z,12.63
2018-10-16T19:35:37.363Z,12.63
2018-10-16T19:38:06.480Z,11.87
2018-10-16T19:40:35.063Z,10.23
2018-10-16T19:43:03.730Z,12.50
2018-10-16T19:45:32.280Z,11.80
2018-10-16T19:48:00.839Z,11.23
2018-10-16T19:50:30.398Z,11.73
2018-10-16T19:52:59.014Z,11.27
2018-10-16T19:55:28.075Z,11.33
2018-10-16T19:57:56.583Z,12.30
2018-10-16T20:00:25.658Z,10.87
2018-10-16T20:02:54.287Z,11.50
2018-10-16T20:05:22.949Z,11.83
2018-10-16T20:07:51.535Z,11.70
2018-10-16T20:10:20.124Z,12.47
2018-10-16T20:12:48.911Z,11.40
2018-10-16T20:15:17.511Z,11.40
2018-10-16T20:17:46.799Z,12.13
2018-10-16T20:20:15.433Z,11.63
2018-10-16T20:22:44.129Z,11.87
2018-10-16T20:25:12.713Z,12.97
2018-10-16T20:27:41.315Z,12.13
2018-10-16T20:30:10.904Z,11.83
2018-10-16T20:32:39.818Z,12.97
2018-10-16T20:35:08.484Z,12.57
2018-10-16T20:37:37.095Z,13.17
2018-10-16T20:40:06.051Z,12.67
2018-10-16T20:42:34.714Z,12.97
2018-10-16T20:45:03.563Z,13.77
2018-10-16T20:47:32.195Z,13.70
2018-10-16T20:50:00.690Z,13.27
2018-10-16T20:52:29.478Z,13.80
2018-10-16T20:54:58.440Z,14.17
2018-10-16T20:57:28.025Z,13.17
2018-10-16T20:59:57.255Z,13.07
2018-10-16T21:02:26.661Z,14.00
2018-10-16T21:04:55.298Z,13.43
2018-10-16T21:07:25.241Z,13.60
2018-10-16T21:09:53.685Z,14.57
2018-10-16T21:12:22.622Z,14.23
2018-10-16T21:14:51.182Z,14.43
2018-10-16T21:17:19.770Z,13.60
2018-10-16T21:19:48.452Z,15.30
2018-10-16T21:22:17.230Z,15.30
2018-10-16T21:24:45.970Z,15.67
2018-10-16T21:27:14.511Z,15.80
2018-10-16T21:29:43.558Z,16.97
2018-10-16T21:32:12.091Z,15.80
2018-10-16T21:34:40.690Z,16.40
2018-10-16T21:37:09.344Z,15.63
2018-10-16T21:39:37.905Z,17.67
2018-10-16T21:42:06.566Z,17.60
2018-10-16T21:44:35.162Z,17.50
2018-10-16T21:47:04.468Z,18.27
2018-10-16T21:49:33.020Z,16.97
2018-10-16T21:52:02.231Z,17.30
2018-10-16T21:54:30.739Z,14.80
2018-10-16T21:56:59.522Z,15.13
2018-10-16T21:59:28.184Z,16.07
2018-10-16T22:02:01.851Z,15.90
2018-10-16T22:04:30.385Z,14.47
2018-10-16T22:06:59.633Z,14.83
2018-10-16T22:09:28.203Z,14.37
2018-10-16T22:11:57.594Z,14.47
2018-10-16T22:14:26.080Z,13.70
2018-10-16T22:16:54.853Z,14.30
2018-10-16T22:19:23.434Z,12.80
2018-10-16T22:21:52.091Z,13.40
2018-10-16T22:24:20.582Z,13.73
2018-10-16T22:26:49.126Z,14.17
2018-10-16T22:29:17.913Z,12.63
2018-10-16T22:31:46.466Z,13.73
2018-10-16T22:34:15.331Z,12.87
2018-10-16T22:36:43.835Z,13.37
2018-10-16T22:39:12.490Z,14.17
2018-10-16T22:41:41.090Z,14.53
2018-10-16T22:44:10.722Z,14.23
2018-10-16T22:46:39.366Z,13.93
2018-10-16T22:49:07.999Z,13.43
2018-10-16T22:51:37.106Z,13.87
2018-10-16T22:54:05.834Z,12.57
2018-10-16T22:56:34.703Z,14.63
2018-10-16T22:59:03.457Z,13.10
2018-10-16T23:01:32.094Z,14.20
2018-10-16T23:04:00.691Z,12.53
2018-10-16T23:06:29.274Z,12.97
2018-10-16T23:08:58.594Z,14.60
2018-10-16T23:11:27.321Z,13.77
2018-10-16T23:13:56.154Z,13.10
2018-10-16T23:16:24.684Z,13.17
2018-10-16T23:18:53.628Z,12.83
2018-10-16T23:21:22.164Z,12.93
2018-10-16T23:23:50.807Z,13.47
2018-10-16T23:26:19.470Z,12.83
2018-10-16T23:28:48.054Z,14.80
2018-10-16T23:31:16.865Z,13.40
2018-10-16T23:33:45.302Z,13.50
2018-10-16T23:36:14.298Z,14.70
2018-10-16T23:38:42.810Z,14.90
2018-10-16T23:41:11.589Z,15.00
2018-10-16T23:43:40.184Z,14.97
2018-10-16T23:46:08.736Z,17.07
2018-10-16T23:48:37.418Z,16.23
2018-10-16T23:51:06.942Z,16.43
2018-10-16T23:53:35.686Z,15.40
2018-10-16T23:56:04.186Z,17.07
2018-10-16T23:58:33.098Z,15.67
